createdAt,value
2022-08-16T00:04:05.104Z,20.30
2022-08-16T00:09:07.916Z,20.30
2022-08-16T00:14:18.847Z,20.20
2022-08-16T00:19:24.353Z,20.20
2022-08-16T00:24:32.750Z,20.10
2022-08-16T00:29:34.929Z,20.20
2022-08-16T00:34:44.988Z,20.10
2022-08-16T00:39:57.401Z,20.10
2022-08-16T00:45:12.127Z,20.10
2022-08-16T00:50:14.637Z,20.10
2022-08-16T00:55:22.272Z,20.00
2022-08-16T01:00:28.633Z,20.00
2022-08-16T01:05:32.931Z,20.00
2022-08-16T01:10:35.824Z,20.00
2022-08-16T01:15:44.019Z,20.00
2022-08-16T01:20:59.358Z,20.00
2022-08-16T01:26:34.889Z,20.00
2022-08-16T01:31:25.352Z,20.00
2022-08-16T01:36:35.255Z,20.00
2022-08-16T01:41:42.164Z,19.90
2022-08-16T01:46:48.204Z,19.80
2022-08-16T01:51:55.840Z,19.80
2022-08-16T01:56:58.115Z,19.80
2022-08-16T02:02:00.956Z,19.70
2022-08-16T02:07:08.678Z,19.70
2022-08-16T02:12:39.696Z,19.70
2022-08-16T02:17:35.823Z,19.60
2022-08-16T02:22:37.804Z,19.60
2022-08-16T02:27:41.631Z,19.60
2022-08-16T02:32:49.065Z,19.50
2022-08-16T02:37:53.664Z,19.50
2022-08-16T02:42:58.118Z,19.50
2022-08-16T02:48:29.435Z,19.40
2022-08-16T02:53:23.378Z,19.40
2022-08-16T02:58:25.865Z,19.40
2022-08-16T03:04:30.017Z,19.30
2022-08-16T03:08:53.195Z,19.30
2022-08-16T03:13:56.408Z,19.20
2022-08-16T03:18:58.565Z,19.20
2022-08-16T03:24:03.871Z,19.20
2022-08-16T03:29:05.800Z,19.20
2022-08-16T03:34:09.305Z,19.10
2022-08-16T03:39:15.030Z,19.20
2022-08-16T03:44:44.515Z,19.20
2022-08-16T03:49:44.229Z,19.20
2022-08-16T03:54:53.577Z,19.20
2022-08-16T04:00:00.099Z,19.20
2022-08-16T04:05:01.908Z,19.20
2022-08-16T04:10:11.455Z,19.20
2022-08-16T04:15:30.281Z,19.20
2022-08-16T04:20:37.074Z,19.20
2022-08-16T04:25:39.158Z,19.20
2022-08-16T04:30:42.359Z,19.10
2022-08-16T04:35:49.636Z,19.20
2022-08-16T04:40:52.046Z,19.10
2022-08-16T04:46:00.214Z,19.20
2022-08-16T04:51:11.527Z,19.20
2022-08-16T04:56:14.546Z,19.20
2022-08-16T05:01:18.962Z,19.30
2022-08-16T05:06:21.009Z,19.30
2022-08-16T05:11:42.769Z,19.40
2022-08-16T05:16:44.785Z,19.50
2022-08-16T05:21:46.483Z,19.50
2022-08-16T05:26:51.436Z,19.60
2022-08-16T05:31:53.539Z,19.70
2022-08-16T05:36:57.377Z,19.80
2022-08-16T05:42:00.593Z,19.80
2022-08-16T05:47:02.488Z,19.90
2022-08-16T05:52:05.641Z,20.00
2022-08-16T05:57:13.670Z,20.10
2022-08-16T06:02:17.546Z,20.20
2022-08-16T06:07:25.141Z,20.30
2022-08-16T06:12:29.552Z,20.40
2022-08-16T06:17:41.144Z,20.50
2022-08-16T06:22:47.585Z,20.60
2022-08-16T06:27:59.051Z,20.70
2022-08-16T06:33:03.756Z,20.80
2022-08-16T06:38:05.491Z,20.80
2022-08-16T06:43:27.825Z,20.90
2022-08-16T06:48:33.111Z,21.10
2022-08-16T06:53:36.715Z,21.20
2022-08-16T06:58:38.673Z,21.30
2022-08-16T07:03:55.226Z,21.50
2022-08-16T07:08:58.996Z,21.60
2022-08-16T07:14:24.350Z,21.70
2022-08-16T07:19:22.394Z,21.80
2022-08-16T07:24:45.989Z,21.90
2022-08-16T07:29:48.311Z,22.00
2022-08-16T07:34:50.253Z,22.10
2022-08-16T07:39:54.702Z,22.20
2022-08-16T07:44:57.662Z,22.30
2022-08-16T07:50:05.441Z,22.40
2022-08-16T07:55:13.815Z,22.60
2022-08-16T08:00:18.437Z,22.70
2022-08-16T08:05:25.547Z,22.70
2022-08-16T08:10:37.694Z,22.70
2022-08-16T08:15:40.524Z,22.90
2022-08-16T08:20:59.416Z,22.90
2022-08-16T08:26:02.068Z,23.00
2022-08-16T08:31:04.149Z,23.10
2022-08-16T08:36:08.360Z,23.20
2022-08-16T08:41:10.947Z,23.20
2022-08-16T08:46:18.102Z,23.40
2022-08-16T08:51:25.349Z,23.50
2022-08-16T08:56:34.781Z,23.50
2022-08-16T09:01:43.199Z,23.70
2022-08-16T09:07:01.139Z,23.80
2022-08-16T09:12:06.782Z,24.00
2022-08-16T09:17:11.805Z,24.10
2022-08-16T09:22:25.325Z,24.10
2022-08-16T09:27:29.926Z,24.20
2022-08-16T09:32:54.643Z,24.30
2022-08-16T09:38:00.886Z,24.40
2022-08-16T09:43:04.812Z,24.60
2022-08-16T09:48:10.063Z,24.60
2022-08-16T09:53:32.373Z,24.70
2022-08-16T09:58:39.040Z,24.90
2022-08-16T10:04:01.508Z,25.00
2022-08-16T10:09:08.320Z,25.10
2022-08-16T10:14:15.946Z,25.20
2022-08-16T10:19:19.265Z,25.30
2022-08-16T10:24:28.679Z,25.50
2022-08-16T10:29:59.366Z,25.50
2022-08-16T10:34:52.627Z,25.50
2022-08-16T10:39:55.756Z,25.70
2022-08-16T10:44:57.626Z,25.70
2022-08-16T10:49:59.498Z,25.80
2022-08-16T11:00:24.160Z,26.10
2022-08-16T11:05:26.566Z,26.20
2022-08-16T11:15:57.590Z,26.50
2022-08-16T11:20:59.612Z,26.50
2022-08-16T11:26:10.301Z,26.60
2022-08-16T11:31:24.609Z,26.80
2022-08-16T11:36:28.160Z,26.90
2022-08-16T11:41:34.067Z,26.90
2022-08-16T11:46:44.753Z,26.90
2022-08-16T11:51:49.569Z,26.90
2022-08-16T11:56:56.974Z,26.80
2022-08-16T12:02:31.318Z,27.20
2022-08-16T12:07:23.585Z,27.40
2022-08-16T12:12:25.808Z,27.40
2022-08-16T12:17:31.799Z,27.60
2022-08-16T12:22:36.766Z,27.90
2022-08-16T12:27:39.419Z,28.30
2022-08-16T12:32:42.245Z,28.30
2022-08-16T12:37:46.244Z,28.30
2022-08-16T12:42:53.020Z,28.40
2022-08-16T12:53:39.730Z,27.90
2022-08-16T12:58:50.333Z,28.00
2022-08-16T13:04:21.355Z,28.00
2022-08-16T13:09:26.725Z,28.40
2022-08-16T13:14:38.610Z,28.40
2022-08-16T13:25:02.760Z,29.00
2022-08-16T13:30:21.876Z,29.40
2022-08-16T13:35:34.599Z,29.60
2022-08-16T13:40:36.881Z,30.00
2022-08-16T13:45:44.887Z,30.50
2022-08-16T13:50:51.595Z,31.10
2022-08-16T13:55:58.549Z,31.10
2022-08-16T14:01:01.829Z,30.90
2022-08-16T14:06:03.809Z,30.70
2022-08-16T14:11:06.067Z,30.70
2022-08-16T14:16:24.176Z,31.50
2022-08-16T14:21:35.444Z,31.90
2022-08-16T14:26:37.518Z,32.40
2022-08-16T14:31:40.845Z,32.70
2022-08-16T14:36:42.792Z,32.70
2022-08-16T14:41:45.201Z,33.40
2022-08-16T14:46:47.121Z,33.30
2022-08-16T14:51:48.942Z,32.50
2022-08-16T14:56:54.869Z,32.60
2022-08-16T15:01:59.513Z,33.40
2022-08-16T15:07:02.281Z,33.40
2022-08-16T15:12:26.806Z,32.70
2022-08-16T15:17:37.053Z,32.10
2022-08-16T15:22:48.159Z,31.70
2022-08-16T15:27:54.733Z,31.90
2022-08-16T15:33:06.036Z,31.60
2022-08-16T15:38:09.080Z,31.90
2022-08-16T15:43:11.340Z,32.10
2022-08-16T15:48:13.395Z,32.20
2022-08-16T15:53:23.612Z,32.30
2022-08-16T15:58:35.494Z,32.40
2022-08-16T16:03:40.484Z,32.50
2022-08-16T16:08:43.296Z,32.70
2022-08-16T16:13:47.728Z,33.40
2022-08-16T16:18:53.605Z,33.80
2022-08-16T16:23:58.953Z,34.00
2022-08-16T16:29:08.660Z,33.30
2022-08-16T16:34:16.557Z,32.60
2022-08-16T16:39:19.216Z,32.40
2022-08-16T16:44:31.775Z,32.70
2022-08-16T16:49:35.682Z,32.70
2022-08-16T16:54:43.547Z,32.70
2022-08-16T16:59:48.710Z,32.70
2022-08-16T17:04:57.361Z,33.00
2022-08-16T17:10:00.082Z,33.20
2022-08-16T17:15:02.622Z,33.30
2022-08-16T17:20:05.436Z,33.10
2022-08-16T17:25:15.351Z,33.20
2022-08-16T17:30:21.042Z,33.00
2022-08-16T17:35:40.199Z,32.40
2022-08-16T17:40:58.642Z,31.70
2022-08-16T17:46:01.640Z,31.20
2022-08-16T17:51:05.353Z,31.00
2022-08-16T17:56:07.231Z,30.80
2022-08-16T18:01:08.940Z,30.40
2022-08-16T18:06:13.248Z,30.10
2022-08-16T18:11:18.063Z,29.90
2022-08-16T18:16:20.636Z,29.60
2022-08-16T18:21:41.874Z,29.30
2022-08-16T18:26:43.642Z,29.00
2022-08-16T18:31:48.874Z,28.70
2022-08-16T18:36:50.944Z,28.30
2022-08-16T18:41:52.797Z,28.00
2022-08-16T18:46:54.620Z,27.70
2022-08-16T18:51:58.428Z,27.50
2022-08-16T18:57:03.446Z,27.30
2022-08-16T19:02:09.012Z,27.00
2022-08-16T19:07:31.765Z,26.80
2022-08-16T19:12:38.243Z,26.60
2022-08-16T19:17:45.628Z,26.40
2022-08-16T19:23:05.114Z,26.20
2022-08-16T19:28:07.747Z,26.10
2022-08-16T19:33:29.831Z,26.00
2022-08-16T19:38:31.512Z,25.80
2022-08-16T19:43:34.066Z,25.60
2022-08-16T19:48:35.813Z,25.60
2022-08-16T19:53:37.586Z,25.50
2022-08-16T19:58:50.996Z,25.30
2022-08-16T20:04:00.956Z,25.20
2022-08-16T20:09:03.551Z,25.10
2022-08-16T20:14:05.633Z,25.10
2022-08-16T20:19:07.369Z,25.00
2022-08-16T20:24:32.680Z,24.80
2022-08-16T20:29:31.034Z,24.70
2022-08-16T20:34:32.841Z,24.60
2022-08-16T20:39:34.708Z,24.50
2022-08-16T20:44:36.527Z,24.40
2022-08-16T20:49:38.458Z,24.30
2022-08-16T20:54:41.110Z,24.20
2022-08-16T20:59:48.053Z,24.10
2022-08-16T21:04:51.723Z,23.90
2022-08-16T21:09:53.462Z,23.80
2022-08-16T21:14:55.240Z,23.80
2022-08-16T21:19:56.956Z,23.80
2022-08-16T21:24:59.669Z,23.60
2022-08-16T21:30:01.513Z,23.60
2022-08-16T21:35:08.994Z,23.50
2022-08-16T21:40:11.904Z,23.40
2022-08-16T21:45:14.406Z,23.40
2022-08-16T21:50:16.165Z,23.20
2022-08-16T21:55:17.934Z,23.00
2022-08-16T22:00:19.680Z,22.80
2022-08-16T22:05:22.105Z,22.80
2022-08-16T22:11:04.457Z,22.70
2022-08-16T22:15:47.703Z,22.70
2022-08-16T22:20:50.394Z,22.70
2022-08-16T22:25:54.450Z,22.60
2022-08-16T22:30:56.819Z,22.60
2022-08-16T22:36:00.893Z,22.60
2022-08-16T22:41:04.657Z,22.60
2022-08-16T22:46:06.571Z,22.50
2022-08-16T22:51:08.300Z,22.50
2022-08-16T22:56:10.288Z,22.40
2022-08-16T23:01:12.745Z,22.30
2022-08-16T23:06:14.755Z,22.30
2022-08-16T23:11:22.367Z,22.30
2022-08-16T23:16:33.674Z,22.20
2022-08-16T23:21:38.023Z,22.10
2022-08-16T23:26:46.084Z,22.00
2022-08-16T23:31:50.334Z,22.00
2022-08-16T23:36:55.588Z,21.90
2022-08-16T23:41:58.775Z,21.80
2022-08-16T23:47:00.476Z,21.90
2022-08-16T23:52:10.174Z,21.70
2022-08-16T23:57:11.980Z,21.70
